sensor_id;sensor_type;location;lat;lon;timestamp;temperature;humidity
20712;DHT22;10517;50.742;4.224;2024-03-08T00:02:07;5.60;99.90
20712;DHT22;10517;50.742;4.224;2024-03-08T00:04:32;5.60;99.90
20712;DHT22;10517;50.742;4.224;2024-03-08T00:06:58;5.60;99.90
20712;DHT22;10517;50.742;4.224;2024-03-08T00:09:23;5.70;99.90
20712;DHT22;10517;50.742;4.224;2024-03-08T00:11:49;5.60;99.90
20712;DHT22;10517;50.742;4.224;2024-03-08T00:14:15;5.60;99.90
20712;DHT22;10517;50.742;4.224;2024-03-08T00:16:41;5.60;99.90
20712;DHT22;10517;50.742;4.224;2024-03-08T00:19:09;5.60;99.90
20712;DHT22;10517;50.742;4.224;2024-03-08T00:21:35;5.50;99.90
20712;DHT22;10517;50.742;4.224;2024-03-08T00:24:01;5.50;99.90
20712;DHT22;10517;50.742;4.224;2024-03-08T00:26:26;5.50;99.90
20712;DHT22;10517;50.742;4.224;2024-03-08T00:28:52;5.50;99.90
20712;DHT22;10517;50.742;4.224;2024-03-08T00:31:19;5.50;99.90
20712;DHT22;10517;50.742;4.224;2024-03-08T00:33:45;5.50;99.90
20712;DHT22;10517;50.742;4.224;2024-03-08T00:36:11;5.50;99.90
20712;DHT22;10517;50.742;4.224;2024-03-08T00:38:36;5.40;99.90
20712;DHT22;10517;50.742;4.224;2024-03-08T00:41:02;5.40;99.90
20712;DHT22;10517;50.742;4.224;2024-03-08T00:43:28;5.40;99.90
20712;DHT22;10517;50.742;4.224;2024-03-08T00:45:55;5.40;99.90
20712;DHT22;10517;50.742;4.224;2024-03-08T00:48:21;5.40;99.90
20712;DHT22;10517;50.742;4.224;2024-03-08T00:50:47;5.40;99.90
20712;DHT22;10517;50.742;4.224;2024-03-08T00:53:13;5.40;99.90
20712;DHT22;10517;50.742;4.224;2024-03-08T00:55:39;5.40;99.90
20712;DHT22;10517;50.742;4.224;2024-03-08T00:58:05;5.30;99.90
20712;DHT22;10517;50.742;4.224;2024-03-08T01:00:30;5.40;99.90
20712;DHT22;10517;50.742;4.224;2024-03-08T01:02:56;5.30;99.90
20712;DHT22;10517;50.742;4.224;2024-03-08T01:05:22;5.30;99.90
20712;DHT22;10517;50.742;4.224;2024-03-08T01:07:50;5.40;99.90
20712;DHT22;10517;50.742;4.224;2024-03-08T01:10:16;5.30;99.90
20712;DHT22;10517;50.742;4.224;2024-03-08T01:12:41;5.30;99.90
20712;DHT22;10517;50.742;4.224;2024-03-08T01:15:09;5.30;99.90
20712;DHT22;10517;50.742;4.224;2024-03-08T01:17:36;5.30;99.90
20712;DHT22;10517;50.742;4.224;2024-03-08T01:20:03;5.30;99.90
20712;DHT22;10517;50.742;4.224;2024-03-08T01:22:28;5.20;99.90
20712;DHT22;10517;50.742;4.224;2024-03-08T01:24:56;5.10;99.90
20712;DHT22;10517;50.742;4.224;2024-03-08T01:27:21;5.20;99.90
20712;DHT22;10517;50.742;4.224;2024-03-08T01:29:47;5.20;99.90
20712;DHT22;10517;50.742;4.224;2024-03-08T01:32:13;5.20;99.90
20712;DHT22;10517;50.742;4.224;2024-03-08T01:34:39;5.20;99.90
20712;DHT22;10517;50.742;4.224;2024-03-08T01:37:04;5.20;99.90
20712;DHT22;10517;50.742;4.224;2024-03-08T01:39:30;5.20;99.90
20712;DHT22;10517;50.742;4.224;2024-03-08T01:41:57;5.20;99.90
20712;DHT22;10517;50.742;4.224;2024-03-08T01:44:23;5.20;99.90
20712;DHT22;10517;50.742;4.224;2024-03-08T01:46:50;5.10;99.90
20712;DHT22;10517;50.742;4.224;2024-03-08T01:49:18;5.10;99.90
20712;DHT22;10517;50.742;4.224;2024-03-08T01:51:46;5.10;99.90
20712;DHT22;10517;50.742;4.224;2024-03-08T01:54:14;5.00;99.90
20712;DHT22;10517;50.742;4.224;2024-03-08T01:56:42;5.00;99.90
20712;DHT22;10517;50.742;4.224;2024-03-08T01:59:08;5.00;99.90
20712;DHT22;10517;50.742;4.224;2024-03-08T02:01:34;4.90;99.90
20712;DHT22;10517;50.742;4.224;2024-03-08T02:04:00;4.90;99.90
20712;DHT22;10517;50.742;4.224;2024-03-08T02:06:26;4.90;99.90
20712;DHT22;10517;50.742;4.224;2024-03-08T02:08:51;4.90;99.90
20712;DHT22;10517;50.742;4.224;2024-03-08T02:11:17;4.90;99.90
20712;DHT22;10517;50.742;4.224;2024-03-08T02:13:44;4.90;99.90
20712;DHT22;10517;50.742;4.224;2024-03-08T02:16:09;4.80;99.90
20712;DHT22;10517;50.742;4.224;2024-03-08T02:18:36;4.70;99.90
20712;DHT22;10517;50.742;4.224;2024-03-08T02:21:02;4.70;99.90
20712;DHT22;10517;50.742;4.224;2024-03-08T02:23:29;4.70;99.90
20712;DHT22;10517;50.742;4.224;2024-03-08T02:25:56;4.60;99.90
20712;DHT22;10517;50.742;4.224;2024-03-08T02:28:22;4.60;99.90
20712;DHT22;10517;50.742;4.224;2024-03-08T02:30:49;4.60;99.90
20712;DHT22;10517;50.742;4.224;2024-03-08T02:33:17;4.60;99.90
20712;DHT22;10517;50.742;4.224;2024-03-08T02:35:44;4.60;99.90
20712;DHT22;10517;50.742;4.224;2024-03-08T02:38:16;4.60;99.90
20712;DHT22;10517;50.742;4.224;2024-03-08T02:40:46;4.50;99.90
20712;DHT22;10517;50.742;4.224;2024-03-08T02:43:13;4.50;99.90
20712;DHT22;10517;50.742;4.224;2024-03-08T02:45:40;4.60;99.90
20712;DHT22;10517;50.742;4.224;2024-03-08T02:48:07;4.60;99.90
20712;DHT22;10517;50.742;4.224;2024-03-08T02:50:33;4.50;99.90
20712;DHT22;10517;50.742;4.224;2024-03-08T02:53:00;4.50;99.90
20712;DHT22;10517;50.742;4.224;2024-03-08T02:55:26;4.50;99.90
20712;DHT22;10517;50.742;4.224;2024-03-08T02:57:52;4.50;99.90
20712;DHT22;10517;50.742;4.224;2024-03-08T03:00:20;4.50;99.90
20712;DHT22;10517;50.742;4.224;2024-03-08T03:02:47;4.50;99.90
20712;DHT22;10517;50.742;4.224;2024-03-08T03:05:12;4.40;99.90
20712;DHT22;10517;50.742;4.224;2024-03-08T03:07:38;4.40;99.90
20712;DHT22;10517;50.742;4.224;2024-03-08T03:10:04;4.30;99.90
20712;DHT22;10517;50.742;4.224;2024-03-08T03:12:31;4.30;99.90
20712;DHT22;10517;50.742;4.224;2024-03-08T03:14:57;4.30;99.90
20712;DHT22;10517;50.742;4.224;2024-03-08T03:17:23;4.20;99.90
20712;DHT22;10517;50.742;4.224;2024-03-08T03:19:50;4.30;99.90
20712;DHT22;10517;50.742;4.224;2024-03-08T03:22:17;4.30;99.90
20712;DHT22;10517;50.742;4.224;2024-03-08T03:24:44;4.20;99.90
20712;DHT22;10517;50.742;4.224;2024-03-08T03:27:09;4.20;99.90
20712;DHT22;10517;50.742;4.224;2024-03-08T03:29:41;4.20;99.90
20712;DHT22;10517;50.742;4.224;2024-03-08T03:32:14;4.10;99.90
20712;DHT22;10517;50.742;4.224;2024-03-08T03:34:40;4.20;99.90
20712;DHT22;10517;50.742;4.224;2024-03-08T03:37:06;4.20;99.90
20712;DHT22;10517;50.742;4.224;2024-03-08T03:39:38;4.10;99.90
20712;DHT22;10517;50.742;4.224;2024-03-08T03:42:14;4.10;99.90
20712;DHT22;10517;50.742;4.224;2024-03-08T03:44:40;4.20;99.90
20712;DHT22;10517;50.742;4.224;2024-03-08T03:47:06;4.10;99.90
20712;DHT22;10517;50.742;4.224;2024-03-08T03:49:33;4.00;99.90
20712;DHT22;10517;50.742;4.224;2024-03-08T03:51:58;4.00;99.90
20712;DHT22;10517;50.742;4.224;2024-03-08T03:54:24;4.00;99.90
20712;DHT22;10517;50.742;4.224;2024-03-08T03:56:49;4.00;99.90
20712;DHT22;10517;50.742;4.224;2024-03-08T03:59:18;4.00;99.90
20712;DHT22;10517;50.742;4.224;2024-03-08T04:01:44;4.00;99.90
20712;DHT22;10517;50.742;4.224;2024-03-08T04:04:09;3.90;99.90
20712;DHT22;10517;50.742;4.224;2024-03-08T04:06:35;3.90;99.90
20712;DHT22;10517;50.742;4.224;2024-03-08T04:09:00;3.90;99.90
20712;DHT22;10517;50.742;4.224;2024-03-08T04:11:26;3.90;99.90
20712;DHT22;10517;50.742;4.224;2024-03-08T04:13:52;3.90;99.90
20712;DHT22;10517;50.742;4.224;2024-03-08T04:16:19;3.90;99.90
20712;DHT22;10517;50.742;4.224;2024-03-08T04:18:44;3.90;99.90
20712;DHT22;10517;50.742;4.224;2024-03-08T04:21:10;3.90;99.90
20712;DHT22;10517;50.742;4.224;2024-03-08T04:23:36;3.90;99.90
20712;DHT22;10517;50.742;4.224;2024-03-08T04:26:05;3.90;99.90
20712;DHT22;10517;50.742;4.224;2024-03-08T04:28:32;3.80;99.90
20712;DHT22;10517;50.742;4.224;2024-03-08T04:30:58;3.80;99.90
20712;DHT22;10517;50.742;4.224;2024-03-08T04:33:26;3.80;99.90
20712;DHT22;10517;50.742;4.224;2024-03-08T04:35:51;3.90;99.90
20712;DHT22;10517;50.742;4.224;2024-03-08T04:38:17;3.90;99.90
20712;DHT22;10517;50.742;4.224;2024-03-08T04:40:43;3.80;99.90
20712;DHT22;10517;50.742;4.224;2024-03-08T04:43:09;3.80;99.90
20712;DHT22;10517;50.742;4.224;2024-03-08T04:45:36;3.80;99.90
20712;DHT22;10517;50.742;4.224;2024-03-08T04:48:02;3.80;99.90
20712;DHT22;10517;50.742;4.224;2024-03-08T04:50:27;3.70;99.90
20712;DHT22;10517;50.742;4.224;2024-03-08T04:52:55;3.60;99.90
20712;DHT22;10517;50.742;4.224;2024-03-08T04:55:21;3.70;99.90
20712;DHT22;10517;50.742;4.224;2024-03-08T04:57:48;3.70;99.90
20712;DHT22;10517;50.742;4.224;2024-03-08T05:00:14;3.70;99.90
20712;DHT22;10517;50.742;4.224;2024-03-08T05:02:40;3.70;99.90
20712;DHT22;10517;50.742;4.224;2024-03-08T05:05:07;3.60;99.90
20712;DHT22;10517;50.742;4.224;2024-03-08T05:07:33;3.60;99.90
20712;DHT22;10517;50.742;4.224;2024-03-08T05:09:59;3.60;99.90
20712;DHT22;10517;50.742;4.224;2024-03-08T05:12:25;3.60;99.90
20712;DHT22;10517;50.742;4.224;2024-03-08T05:14:51;3.60;99.90
20712;DHT22;10517;50.742;4.224;2024-03-08T05:17:16;3.60;99.90
20712;DHT22;10517;50.742;4.224;2024-03-08T05:19:42;3.50;99.90
20712;DHT22;10517;50.742;4.224;2024-03-08T05:22:09;3.60;99.90
20712;DHT22;10517;50.742;4.224;2024-03-08T05:24:34;3.50;99.90
20712;DHT22;10517;50.742;4.224;2024-03-08T05:27:01;3.50;99.90
20712;DHT22;10517;50.742;4.224;2024-03-08T05:29:27;3.40;99.90
20712;DHT22;10517;50.742;4.224;2024-03-08T05:31:54;3.40;99.90
20712;DHT22;10517;50.742;4.224;2024-03-08T05:34:20;3.50;99.90
20712;DHT22;10517;50.742;4.224;2024-03-08T05:36:47;3.50;99.90
20712;DHT22;10517;50.742;4.224;2024-03-08T05:39:15;3.40;99.90
20712;DHT22;10517;50.742;4.224;2024-03-08T05:41:42;3.40;99.90
20712;DHT22;10517;50.742;4.224;2024-03-08T05:44:08;3.40;99.90
20712;DHT22;10517;50.742;4.224;2024-03-08T05:46:34;3.40;99.90
20712;DHT22;10517;50.742;4.224;2024-03-08T05:49:01;3.30;99.90
20712;DHT22;10517;50.742;4.224;2024-03-08T05:51:34;3.40;99.90
20712;DHT22;10517;50.742;4.224;2024-03-08T05:54:05;3.40;99.90
20712;DHT22;10517;50.742;4.224;2024-03-08T05:56:35;3.30;99.90
20712;DHT22;10517;50.742;4.224;2024-03-08T05:59:01;3.30;99.90
20712;DHT22;10517;50.742;4.224;2024-03-08T06:01:27;3.30;99.90
20712;DHT22;10517;50.742;4.224;2024-03-08T06:03:54;3.30;99.90
20712;DHT22;10517;50.742;4.224;2024-03-08T06:06:26;3.30;99.90
20712;DHT22;10517;50.742;4.224;2024-03-08T06:08:51;3.30;99.90
20712;DHT22;10517;50.742;4.224;2024-03-08T06:11:18;3.30;99.90
20712;DHT22;10517;50.742;4.224;2024-03-08T06:13:46;3.30;99.90
20712;DHT22;10517;50.742;4.224;2024-03-08T06:16:11;3.30;99.90
20712;DHT22;10517;50.742;4.224;2024-03-08T06:18:37;3.30;99.90
20712;DHT22;10517;50.742;4.224;2024-03-08T06:21:07;3.30;99.90
20712;DHT22;10517;50.742;4.224;2024-03-08T06:23:34;3.20;99.90
20712;DHT22;10517;50.742;4.224;2024-03-08T06:26:04;3.30;99.90
20712;DHT22;10517;50.742;4.224;2024-03-08T06:28:29;3.30;99.90
20712;DHT22;10517;50.742;4.224;2024-03-08T06:30:55;3.40;99.90
20712;DHT22;10517;50.742;4.224;2024-03-08T06:33:20;3.40;99.90
20712;DHT22;10517;50.742;4.224;2024-03-08T06:35:46;3.50;99.90
20712;DHT22;10517;50.742;4.224;2024-03-08T06:38:12;3.40;99.90
20712;DHT22;10517;50.742;4.224;2024-03-08T06:40:37;3.30;99.90
20712;DHT22;10517;50.742;4.224;2024-03-08T06:43:03;3.30;99.90
20712;DHT22;10517;50.742;4.224;2024-03-08T06:45:32;3.20;99.90
20712;DHT22;10517;50.742;4.224;2024-03-08T06:47:58;3.30;99.90
20712;DHT22;10517;50.742;4.224;2024-03-08T06:50:23;3.30;99.90
20712;DHT22;10517;50.742;4.224;2024-03-08T06:52:49;3.30;99.90
20712;DHT22;10517;50.742;4.224;2024-03-08T06:55:22;3.20;99.90
20712;DHT22;10517;50.742;4.224;2024-03-08T06:57:47;3.30;99.90
20712;DHT22;10517;50.742;4.224;2024-03-08T07:00:13;3.40;99.90
20712;DHT22;10517;50.742;4.224;2024-03-08T07:02:46;3.40;99.90
20712;DHT22;10517;50.742;4.224;2024-03-08T07:05:14;3.40;99.90
20712;DHT22;10517;50.742;4.224;2024-03-08T07:07:40;3.50;99.90
20712;DHT22;10517;50.742;4.224;2024-03-08T07:10:07;3.60;99.90
20712;DHT22;10517;50.742;4.224;2024-03-08T07:12:37;3.60;99.90
20712;DHT22;10517;50.742;4.224;2024-03-08T07:15:04;3.70;99.90
20712;DHT22;10517;50.742;4.224;2024-03-08T07:17:30;3.70;99.90
20712;DHT22;10517;50.742;4.224;2024-03-08T07:19:56;3.70;99.90
20712;DHT22;10517;50.742;4.224;2024-03-08T07:22:24;3.80;99.90
20712;DHT22;10517;50.742;4.224;2024-03-08T07:24:50;3.90;99.90
20712;DHT22;10517;50.742;4.224;2024-03-08T07:27:36;4.00;99.90
20712;DHT22;10517;50.742;4.224;2024-03-08T07:30:05;4.10;99.90
20712;DHT22;10517;50.742;4.224;2024-03-08T07:32:30;4.20;99.90
20712;DHT22;10517;50.742;4.224;2024-03-08T07:34:57;4.30;99.90
20712;DHT22;10517;50.742;4.224;2024-03-08T07:37:22;4.30;99.90
20712;DHT22;10517;50.742;4.224;2024-03-08T07:39:49;4.40;99.90
20712;DHT22;10517;50.742;4.224;2024-03-08T07:42:15;4.50;99.90
20712;DHT22;10517;50.742;4.224;2024-03-08T07:44:42;4.50;99.90
20712;DHT22;10517;50.742;4.224;2024-03-08T07:47:08;4.60;99.90
20712;DHT22;10517;50.742;4.224;2024-03-08T07:49:35;4.60;99.90
20712;DHT22;10517;50.742;4.224;2024-03-08T07:52:03;4.60;99.90
20712;DHT22;10517;50.742;4.224;2024-03-08T07:54:30;4.70;99.90
20712;DHT22;10517;50.742;4.224;2024-03-08T07:56:55;4.90;99.90
20712;DHT22;10517;50.742;4.224;2024-03-08T07:59:21;4.90;99.90
20712;DHT22;10517;50.742;4.224;2024-03-08T08:01:46;5.00;99.90
20712;DHT22;10517;50.742;4.224;2024-03-08T08:04:12;5.10;99.90
20712;DHT22;10517;50.742;4.224;2024-03-08T08:06:40;5.20;99.90
20712;DHT22;10517;50.742;4.224;2024-03-08T08:09:09;5.20;99.90
20712;DHT22;10517;50.742;4.224;2024-03-08T08:11:40;5.10;99.90
20712;DHT22;10517;50.742;4.224;2024-03-08T08:14:09;5.20;99.90
20712;DHT22;10517;50.742;4.224;2024-03-08T08:16:35;5.40;99.90
20712;DHT22;10517;50.742;4.224;2024-03-08T08:19:07;5.40;99.90
20712;DHT22;10517;50.742;4.224;2024-03-08T08:21:36;5.30;99.90
20712;DHT22;10517;50.742;4.224;2024-03-08T08:24:05;5.40;99.90
20712;DHT22;10517;50.742;4.224;2024-03-08T08:26:31;5.40;99.90
20712;DHT22;10517;50.742;4.224;2024-03-08T08:28:58;5.50;99.90
20712;DHT22;10517;50.742;4.224;2024-03-08T08:31:25;5.60;99.90
20712;DHT22;10517;50.742;4.224;2024-03-08T08:33:50;5.70;99.90
20712;DHT22;10517;50.742;4.224;2024-03-08T08:36:19;5.90;99.90
20712;DHT22;10517;50.742;4.224;2024-03-08T08:38:44;6.00;99.90
20712;DHT22;10517;50.742;4.224;2024-03-08T08:41:11;6.20;99.90
20712;DHT22;10517;50.742;4.224;2024-03-08T08:43:36;6.10;99.90
20712;DHT22;10517;50.742;4.224;2024-03-08T08:46:02;6.20;99.90
20712;DHT22;10517;50.742;4.224;2024-03-08T08:48:28;6.40;99.90
20712;DHT22;10517;50.742;4.224;2024-03-08T08:50:56;6.50;99.90
20712;DHT22;10517;50.742;4.224;2024-03-08T08:53:21;6.50;99.90
20712;DHT22;10517;50.742;4.224;2024-03-08T08:55:47;6.40;99.90
20712;DHT22;10517;50.742;4.224;2024-03-08T08:58:13;6.50;99.90
20712;DHT22;10517;50.742;4.224;2024-03-08T09:00:39;6.60;99.90
20712;DHT22;10517;50.742;4.224;2024-03-08T09:03:05;6.80;99.90
20712;DHT22;10517;50.742;4.224;2024-03-08T09:05:32;6.80;99.90
20712;DHT22;10517;50.742;4.224;2024-03-08T09:07:59;6.90;99.90
20712;DHT22;10517;50.742;4.224;2024-03-08T09:10:25;7.00;99.90
20712;DHT22;10517;50.742;4.224;2024-03-08T09:12:51;6.90;99.90
20712;DHT22;10517;50.742;4.224;2024-03-08T09:15:16;7.00;99.90
20712;DHT22;10517;50.742;4.224;2024-03-08T09:17:43;7.10;99.90
20712;DHT22;10517;50.742;4.224;2024-03-08T09:20:10;7.00;99.90
20712;DHT22;10517;50.742;4.224;2024-03-08T09:22:36;7.20;99.90
20712;DHT22;10517;50.742;4.224;2024-03-08T09:25:01;7.30;99.90
20712;DHT22;10517;50.742;4.224;2024-03-08T09:27:28;7.50;99.90
20712;DHT22;10517;50.742;4.224;2024-03-08T09:29:54;7.60;99.90
20712;DHT22;10517;50.742;4.224;2024-03-08T09:32:20;7.70;99.90
20712;DHT22;10517;50.742;4.224;2024-03-08T09:34:45;7.80;99.90
20712;DHT22;10517;50.742;4.224;2024-03-08T09:37:11;7.90;99.90
20712;DHT22;10517;50.742;4.224;2024-03-08T09:39:37;7.80;99.90
20712;DHT22;10517;50.742;4.224;2024-03-08T09:42:03;7.80;99.90
20712;DHT22;10517;50.742;4.224;2024-03-08T09:44:29;7.90;99.90
20712;DHT22;10517;50.742;4.224;2024-03-08T09:46:55;8.10;99.90
20712;DHT22;10517;50.742;4.224;2024-03-08T09:49:21;8.30;99.90
20712;DHT22;10517;50.742;4.224;2024-03-08T09:51:46;8.40;99.90
20712;DHT22;10517;50.742;4.224;2024-03-08T09:54:13;8.40;99.90
20712;DHT22;10517;50.742;4.224;2024-03-08T09:56:43;8.50;99.90
20712;DHT22;10517;50.742;4.224;2024-03-08T09:59:09;8.60;99.90
20712;DHT22;10517;50.742;4.224;2024-03-08T10:01:54;8.50;99.90
20712;DHT22;10517;50.742;4.224;2024-03-08T10:04:22;8.60;99.90
20712;DHT22;10517;50.742;4.224;2024-03-08T10:06:48;8.70;99.90
20712;DHT22;10517;50.742;4.224;2024-03-08T10:09:14;8.80;99.90
20712;DHT22;10517;50.742;4.224;2024-03-08T10:11:41;8.70;99.90
20712;DHT22;10517;50.742;4.224;2024-03-08T10:14:10;8.90;99.90
20712;DHT22;10517;50.742;4.224;2024-03-08T10:16:39;9.00;99.90
20712;DHT22;10517;50.742;4.224;2024-03-08T10:19:04;9.10;99.90
20712;DHT22;10517;50.742;4.224;2024-03-08T10:21:31;9.30;99.90
20712;DHT22;10517;50.742;4.224;2024-03-08T10:23:58;9.40;99.90
20712;DHT22;10517;50.742;4.224;2024-03-08T10:26:24;9.30;99.90
20712;DHT22;10517;50.742;4.224;2024-03-08T10:28:52;9.30;99.90
20712;DHT22;10517;50.742;4.224;2024-03-08T10:31:20;9.40;99.90
20712;DHT22;10517;50.742;4.224;2024-03-08T10:33:46;9.40;99.90
20712;DHT22;10517;50.742;4.224;2024-03-08T10:36:13;9.70;99.90
20712;DHT22;10517;50.742;4.224;2024-03-08T10:38:41;9.90;99.90
20712;DHT22;10517;50.742;4.224;2024-03-08T10:41:10;9.90;99.90
20712;DHT22;10517;50.742;4.224;2024-03-08T10:44:10;10.00;99.90
20712;DHT22;10517;50.742;4.224;2024-03-08T10:49:43;10.10;99.90
20712;DHT22;10517;50.742;4.224;2024-03-08T10:52:13;10.30;99.90
20712;DHT22;10517;50.742;4.224;2024-03-08T10:54:41;10.40;99.90
20712;DHT22;10517;50.742;4.224;2024-03-08T10:57:08;10.40;99.90
20712;DHT22;10517;50.742;4.224;2024-03-08T10:59:36;10.50;99.90
20712;DHT22;10517;50.742;4.224;2024-03-08T11:02:02;10.60;99.90
20712;DHT22;10517;50.742;4.224;2024-03-08T11:04:31;10.60;99.90
20712;DHT22;10517;50.742;4.224;2024-03-08T11:07:02;10.80;99.90
20712;DHT22;10517;50.742;4.224;2024-03-08T11:09:31;11.00;99.90
20712;DHT22;10517;50.742;4.224;2024-03-08T11:14:51;11.10;99.90
20712;DHT22;10517;50.742;4.224;2024-03-08T11:17:22;11.30;99.90
20712;DHT22;10517;50.742;4.224;2024-03-08T11:19:51;11.30;99.90
20712;DHT22;10517;50.742;4.224;2024-03-08T11:22:28;11.40;99.90
20712;DHT22;10517;50.742;4.224;2024-03-08T11:25:02;11.60;99.90
20712;DHT22;10517;50.742;4.224;2024-03-08T11:27:31;11.70;99.90
20712;DHT22;10517;50.742;4.224;2024-03-08T11:30:04;11.50;99.90
20712;DHT22;10517;50.742;4.224;2024-03-08T11:32:37;11.30;99.90
20712;DHT22;10517;50.742;4.224;2024-03-08T11:35:07;11.40;99.90
20712;DHT22;10517;50.742;4.224;2024-03-08T11:37:34;11.40;99.90
20712;DHT22;10517;50.742;4.224;2024-03-08T11:40:01;11.40;99.90
20712;DHT22;10517;50.742;4.224;2024-03-08T11:42:30;11.50;99.90
20712;DHT22;10517;50.742;4.224;2024-03-08T11:44:56;11.50;99.90
20712;DHT22;10517;50.742;4.224;2024-03-08T11:47:22;11.50;99.90
20712;DHT22;10517;50.742;4.224;2024-03-08T11:49:48;11.50;99.90
20712;DHT22;10517;50.742;4.224;2024-03-08T11:52:17;11.80;99.90
20712;DHT22;10517;50.742;4.224;2024-03-08T11:54:51;12.00;99.90
20712;DHT22;10517;50.742;4.224;2024-03-08T11:57:18;11.70;99.90
20712;DHT22;10517;50.742;4.224;2024-03-08T11:59:51;11.70;99.90
20712;DHT22;10517;50.742;4.224;2024-03-08T12:02:17;12.10;99.90
20712;DHT22;10517;50.742;4.224;2024-03-08T12:04:44;12.30;99.90
20712;DHT22;10517;50.742;4.224;2024-03-08T12:07:11;12.50;99.90
20712;DHT22;10517;50.742;4.224;2024-03-08T12:09:40;12.70;99.90
20712;DHT22;10517;50.742;4.224;2024-03-08T12:12:07;12.50;99.90
20712;DHT22;10517;50.742;4.224;2024-03-08T12:14:36;12.60;99.90
20712;DHT22;10517;50.742;4.224;2024-03-08T12:17:03;12.70;99.90
20712;DHT22;10517;50.742;4.224;2024-03-08T12:19:30;12.80;99.90
20712;DHT22;10517;50.742;4.224;2024-03-08T12:21:56;12.70;99.90
20712;DHT22;10517;50.742;4.224;2024-03-08T12:24:21;12.70;99.90
20712;DHT22;10517;50.742;4.224;2024-03-08T12:26:48;12.90;99.90
20712;DHT22;10517;50.742;4.224;2024-03-08T12:29:27;13.00;99.90
20712;DHT22;10517;50.742;4.224;2024-03-08T12:31:58;13.20;99.90
20712;DHT22;10517;50.742;4.224;2024-03-08T12:34:26;13.30;99.90
20712;DHT22;10517;50.742;4.224;2024-03-08T12:36:53;13.50;99.90
20712;DHT22;10517;50.742;4.224;2024-03-08T12:39:20;13.40;99.90
20712;DHT22;10517;50.742;4.224;2024-03-08T12:41:55;13.30;99.90
20712;DHT22;10517;50.742;4.224;2024-03-08T12:44:22;13.20;99.90
20712;DHT22;10517;50.742;4.224;2024-03-08T12:46:49;13.30;99.90
20712;DHT22;10517;50.742;4.224;2024-03-08T12:49:15;13.40;99.90
20712;DHT22;10517;50.742;4.224;2024-03-08T12:51:46;13.60;99.90
20712;DHT22;10517;50.742;4.224;2024-03-08T12:54:12;13.90;99.90
20712;DHT22;10517;50.742;4.224;2024-03-08T12:56:38;14.10;99.90
20712;DHT22;10517;50.742;4.224;2024-03-08T12:59:05;14.10;99.90
20712;DHT22;10517;50.742;4.224;2024-03-08T13:01:31;13.50;99.90
20712;DHT22;10517;50.742;4.224;2024-03-08T13:03:58;13.50;99.90
20712;DHT22;10517;50.742;4.224;2024-03-08T13:06:24;13.60;99.90
20712;DHT22;10517;50.742;4.224;2024-03-08T13:08:53;13.80;99.90
20712;DHT22;10517;50.742;4.224;2024-03-08T13:11:19;14.00;99.90
20712;DHT22;10517;50.742;4.224;2024-03-08T13:13:45;14.20;99.90
20712;DHT22;10517;50.742;4.224;2024-03-08T13:16:11;14.20;99.90
20712;DHT22;10517;50.742;4.224;2024-03-08T13:18:40;14.40;99.90
20712;DHT22;10517;50.742;4.224;2024-03-08T13:21:07;14.60;99.90
20712;DHT22;10517;50.742;4.224;2024-03-08T13:23:34;14.40;99.90
20712;DHT22;10517;50.742;4.224;2024-03-08T13:26:10;14.80;99.90
20712;DHT22;10517;50.742;4.224;2024-03-08T13:28:47;15.40;99.90
20712;DHT22;10517;50.742;4.224;2024-03-08T13:31:19;16.20;99.90
20712;DHT22;10517;50.742;4.224;2024-03-08T13:33:45;16.30;99.90
20712;DHT22;10517;50.742;4.224;2024-03-08T13:36:12;16.50;99.90
20712;DHT22;10517;50.742;4.224;2024-03-08T13:38:46;17.00;99.90
20712;DHT22;10517;50.742;4.224;2024-03-08T13:41:12;17.80;99.90
20712;DHT22;10517;50.742;4.224;2024-03-08T13:43:40;18.60;99.90
20712;DHT22;10517;50.742;4.224;2024-03-08T13:46:06;18.70;99.90
20712;DHT22;10517;50.742;4.224;2024-03-08T13:48:33;19.30;99.90
20712;DHT22;10517;50.742;4.224;2024-03-08T13:50:58;19.20;99.90
20712;DHT22;10517;50.742;4.224;2024-03-08T13:53:26;19.60;99.90
20712;DHT22;10517;50.742;4.224;2024-03-08T13:55:51;19.50;99.90
20712;DHT22;10517;50.742;4.224;2024-03-08T13:58:17;18.40;99.90
20712;DHT22;10517;50.742;4.224;2024-03-08T14:00:42;18.20;99.90
20712;DHT22;10517;50.742;4.224;2024-03-08T14:03:11;18.80;99.90
20712;DHT22;10517;50.742;4.224;2024-03-08T14:05:41;19.60;99.90
20712;DHT22;10517;50.742;4.224;2024-03-08T14:08:08;19.90;99.90
20712;DHT22;10517;50.742;4.224;2024-03-08T14:10:34;20.20;99.90
20712;DHT22;10517;50.742;4.224;2024-03-08T14:13:02;21.00;99.90
20712;DHT22;10517;50.742;4.224;2024-03-08T14:15:33;21.20;99.90
20712;DHT22;10517;50.742;4.224;2024-03-08T14:18:00;21.10;99.90
20712;DHT22;10517;50.742;4.224;2024-03-08T14:20:26;20.60;99.90
20712;DHT22;10517;50.742;4.224;2024-03-08T14:22:55;21.00;99.90
20712;DHT22;10517;50.742;4.224;2024-03-08T14:25:22;21.70;99.90
20712;DHT22;10517;50.742;4.224;2024-03-08T14:27:50;22.10;99.90
20712;DHT22;10517;50.742;4.224;2024-03-08T14:30:15;22.60;99.90
20712;DHT22;10517;50.742;4.224;2024-03-08T14:32:58;21.50;99.90
20712;DHT22;10517;50.742;4.224;2024-03-08T14:35:25;20.90;99.90
20712;DHT22;10517;50.742;4.224;2024-03-08T14:37:51;20.70;99.90
20712;DHT22;10517;50.742;4.224;2024-03-08T14:40:17;21.10;99.90
20712;DHT22;10517;50.742;4.224;2024-03-08T14:42:50;21.30;99.90
20712;DHT22;10517;50.742;4.224;2024-03-08T14:45:16;21.30;99.90
20712;DHT22;10517;50.742;4.224;2024-03-08T14:47:45;21.70;99.90
20712;DHT22;10517;50.742;4.224;2024-03-08T14:50:15;21.70;99.90
20712;DHT22;10517;50.742;4.224;2024-03-08T14:52:42;22.10;99.90
20712;DHT22;10517;50.742;4.224;2024-03-08T14:55:08;21.50;99.90
20712;DHT22;10517;50.742;4.224;2024-03-08T14:57:35;21.20;99.90
20712;DHT22;10517;50.742;4.224;2024-03-08T15:00:01;20.60;99.90
20712;DHT22;10517;50.742;4.224;2024-03-08T15:02:31;20.80;99.90
20712;DHT22;10517;50.742;4.224;2024-03-08T15:05:03;20.90;99.90
20712;DHT22;10517;50.742;4.224;2024-03-08T15:07:34;21.10;99.90
20712;DHT22;10517;50.742;4.224;2024-03-08T15:10:00;21.00;99.90
20712;DHT22;10517;50.742;4.224;2024-03-08T15:12:25;21.00;99.90
20712;DHT22;10517;50.742;4.224;2024-03-08T15:14:52;21.30;99.90
20712;DHT22;10517;50.742;4.224;2024-03-08T15:17:18;21.40;99.90
20712;DHT22;10517;50.742;4.224;2024-03-08T15:19:49;22.00;99.90
20712;DHT22;10517;50.742;4.224;2024-03-08T15:22:15;22.30;99.90
20712;DHT22;10517;50.742;4.224;2024-03-08T15:24:43;22.80;99.90
20712;DHT22;10517;50.742;4.224;2024-03-08T15:27:09;22.80;99.90
20712;DHT22;10517;50.742;4.224;2024-03-08T15:29:35;22.70;99.90
20712;DHT22;10517;50.742;4.224;2024-03-08T15:32:01;22.80;99.90
20712;DHT22;10517;50.742;4.224;2024-03-08T15:34:28;23.10;99.90
20712;DHT22;10517;50.742;4.224;2024-03-08T15:36:54;23.70;99.90
20712;DHT22;10517;50.742;4.224;2024-03-08T15:39:19;23.60;99.90
20712;DHT22;10517;50.742;4.224;2024-03-08T15:41:49;23.30;99.90
20712;DHT22;10517;50.742;4.224;2024-03-08T15:44:15;22.70;99.90
20712;DHT22;10517;50.742;4.224;2024-03-08T15:46:41;21.60;99.90
20712;DHT22;10517;50.742;4.224;2024-03-08T15:49:07;20.60;99.90